sensor_id;sensor_type;location;lat;lon;timestamp;P1;durP1;ratioP1;P2;durP2;ratioP2
11829;SDS011;5972;42.134;24.718;2024-02-21T00:00:11;39.87;;;28.53;;
11829;SDS011;5972;42.134;24.718;2024-02-21T00:02:39;38.47;;;27.90;;
11829;SDS011;5972;42.134;24.718;2024-02-21T00:05:07;42.17;;;28.67;;
11829;SDS011;5972;42.134;24.718;2024-02-21T00:07:34;37.33;;;28.87;;
11829;SDS011;5972;42.134;24.718;2024-02-21T00:10:01;39.97;;;28.97;;
11829;SDS011;5972;42.134;24.718;2024-02-21T00:12:29;38.33;;;29.00;;
11829;SDS011;5972;42.134;24.718;2024-02-21T00:14:56;41.53;;;29.13;;
11829;SDS011;5972;42.134;24.718;2024-02-21T00:17:23;40.13;;;29.03;;
11829;SDS011;5972;42.134;24.718;2024-02-21T00:19:51;42.33;;;28.37;;
11829;SDS011;5972;42.134;24.718;2024-02-21T00:22:19;39.90;;;28.43;;
11829;SDS011;5972;42.134;24.718;2024-02-21T00:24:46;44.43;;;28.60;;
11829;SDS011;5972;42.134;24.718;2024-02-21T00:27:13;41.23;;;28.90;;
11829;SDS011;5972;42.134;24.718;2024-02-21T00:29:40;41.23;;;28.60;;
11829;SDS011;5972;42.134;24.718;2024-02-21T00:32:07;39.57;;;29.07;;
11829;SDS011;5972;42.134;24.718;2024-02-21T00:34:34;39.57;;;27.93;;
11829;SDS011;5972;42.134;24.718;2024-02-21T00:37:01;39.93;;;29.53;;
11829;SDS011;5972;42.134;24.718;2024-02-21T00:39:30;42.13;;;30.87;;
11829;SDS011;5972;42.134;24.718;2024-02-21T00:41:57;44.03;;;31.67;;
11829;SDS011;5972;42.134;24.718;2024-02-21T00:44:24;42.27;;;29.87;;
11829;SDS011;5972;42.134;24.718;2024-02-21T00:46:51;41.33;;;29.77;;
11829;SDS011;5972;42.134;24.718;2024-02-21T00:49:18;43.53;;;30.60;;
11829;SDS011;5972;42.134;24.718;2024-02-21T00:51:45;38.83;;;30.37;;
11829;SDS011;5972;42.134;24.718;2024-02-21T00:54:12;43.43;;;30.53;;
11829;SDS011;5972;42.134;24.718;2024-02-21T00:56:40;39.80;;;31.37;;
11829;SDS011;5972;42.134;24.718;2024-02-21T00:59:07;44.77;;;32.73;;
11829;SDS011;5972;42.134;24.718;2024-02-21T01:01:34;41.83;;;30.57;;
11829;SDS011;5972;42.134;24.718;2024-02-21T01:04:01;42.43;;;31.23;;
11829;SDS011;5972;42.134;24.718;2024-02-21T01:06:28;41.03;;;31.20;;
11829;SDS011;5972;42.134;24.718;2024-02-21T01:08:55;40.00;;;30.97;;
11829;SDS011;5972;42.134;24.718;2024-02-21T01:11:22;47.17;;;33.30;;
11829;SDS011;5972;42.134;24.718;2024-02-21T01:13:50;43.13;;;31.10;;
11829;SDS011;5972;42.134;24.718;2024-02-21T01:16:17;39.60;;;29.50;;
11829;SDS011;5972;42.134;24.718;2024-02-21T01:18:44;42.83;;;28.40;;
11829;SDS011;5972;42.134;24.718;2024-02-21T01:21:11;38.03;;;28.43;;
11829;SDS011;5972;42.134;24.718;2024-02-21T01:23:41;35.33;;;26.13;;
11829;SDS011;5972;42.134;24.718;2024-02-21T01:26:07;35.60;;;25.90;;
11829;SDS011;5972;42.134;24.718;2024-02-21T01:28:38;34.13;;;26.03;;
11829;SDS011;5972;42.134;24.718;2024-02-21T01:31:06;33.60;;;23.57;;
11829;SDS011;5972;42.134;24.718;2024-02-21T01:33:33;30.07;;;23.63;;
11829;SDS011;5972;42.134;24.718;2024-02-21T01:36:01;32.07;;;23.80;;
11829;SDS011;5972;42.134;24.718;2024-02-21T01:38:28;30.43;;;23.80;;
11829;SDS011;5972;42.134;24.718;2024-02-21T01:40:55;30.37;;;23.23;;
11829;SDS011;5972;42.134;24.718;2024-02-21T01:43:22;31.50;;;24.93;;
11829;SDS011;5972;42.134;24.718;2024-02-21T01:45:50;31.53;;;22.50;;
11829;SDS011;5972;42.134;24.718;2024-02-21T01:48:20;31.37;;;23.80;;
11829;SDS011;5972;42.134;24.718;2024-02-21T01:50:48;30.47;;;23.33;;
11829;SDS011;5972;42.134;24.718;2024-02-21T01:53:16;30.20;;;23.97;;
11829;SDS011;5972;42.134;24.718;2024-02-21T01:55:46;31.90;;;23.10;;
11829;SDS011;5972;42.134;24.718;2024-02-21T01:58:13;29.17;;;22.60;;
11829;SDS011;5972;42.134;24.718;2024-02-21T02:00:42;29.27;;;22.47;;
11829;SDS011;5972;42.134;24.718;2024-02-21T02:03:10;32.10;;;22.73;;
11829;SDS011;5972;42.134;24.718;2024-02-21T02:05:43;31.53;;;24.20;;
11829;SDS011;5972;42.134;24.718;2024-02-21T02:08:12;30.07;;;22.57;;
11829;SDS011;5972;42.134;24.718;2024-02-21T02:10:39;31.20;;;23.53;;
11829;SDS011;5972;42.134;24.718;2024-02-21T02:13:07;31.00;;;23.70;;
11829;SDS011;5972;42.134;24.718;2024-02-21T02:15:37;31.23;;;23.63;;
11829;SDS011;5972;42.134;24.718;2024-02-21T02:18:05;30.63;;;24.77;;
11829;SDS011;5972;42.134;24.718;2024-02-21T02:20:32;31.70;;;24.63;;
11829;SDS011;5972;42.134;24.718;2024-02-21T02:23:01;33.30;;;24.80;;
11829;SDS011;5972;42.134;24.718;2024-02-21T02:25:35;32.17;;;24.53;;
11829;SDS011;5972;42.134;24.718;2024-02-21T02:28:02;32.10;;;24.17;;
11829;SDS011;5972;42.134;24.718;2024-02-21T02:30:31;34.37;;;25.90;;
11829;SDS011;5972;42.134;24.718;2024-02-21T02:32:59;33.10;;;25.30;;
11829;SDS011;5972;42.134;24.718;2024-02-21T02:35:26;33.33;;;26.70;;
11829;SDS011;5972;42.134;24.718;2024-02-21T02:37:53;32.60;;;25.83;;
11829;SDS011;5972;42.134;24.718;2024-02-21T02:40:20;32.40;;;26.97;;
11829;SDS011;5972;42.134;24.718;2024-02-21T02:42:48;33.17;;;24.60;;
11829;SDS011;5972;42.134;24.718;2024-02-21T02:45:16;36.40;;;25.93;;
11829;SDS011;5972;42.134;24.718;2024-02-21T02:47:44;32.53;;;25.53;;
11829;SDS011;5972;42.134;24.718;2024-02-21T02:50:11;33.93;;;25.37;;
11829;SDS011;5972;42.134;24.718;2024-02-21T02:52:38;30.33;;;23.80;;
11829;SDS011;5972;42.134;24.718;2024-02-21T02:55:05;30.77;;;23.40;;
11829;SDS011;5972;42.134;24.718;2024-02-21T02:57:33;32.37;;;25.07;;
11829;SDS011;5972;42.134;24.718;2024-02-21T03:00:05;30.37;;;24.13;;
11829;SDS011;5972;42.134;24.718;2024-02-21T03:02:33;34.40;;;25.73;;
11829;SDS011;5972;42.134;24.718;2024-02-21T03:05:00;34.57;;;27.10;;
11829;SDS011;5972;42.134;24.718;2024-02-21T03:07:27;39.50;;;29.47;;
11829;SDS011;5972;42.134;24.718;2024-02-21T03:09:54;34.87;;;27.33;;
11829;SDS011;5972;42.134;24.718;2024-02-21T03:12:21;38.63;;;29.33;;
11829;SDS011;5972;42.134;24.718;2024-02-21T03:14:53;40.57;;;27.70;;
11829;SDS011;5972;42.134;24.718;2024-02-21T03:17:21;37.70;;;27.87;;
11829;SDS011;5972;42.134;24.718;2024-02-21T03:19:48;35.27;;;27.83;;
11829;SDS011;5972;42.134;24.718;2024-02-21T03:22:15;36.83;;;27.33;;
11829;SDS011;5972;42.134;24.718;2024-02-21T03:24:42;33.60;;;26.43;;
11829;SDS011;5972;42.134;24.718;2024-02-21T03:27:09;35.67;;;27.27;;
11829;SDS011;5972;42.134;24.718;2024-02-21T03:29:36;29.07;;;24.10;;
11829;SDS011;5972;42.134;24.718;2024-02-21T03:32:03;29.17;;;23.30;;
11829;SDS011;5972;42.134;24.718;2024-02-21T03:34:32;33.30;;;25.27;;
11829;SDS011;5972;42.134;24.718;2024-02-21T03:36:59;28.97;;;23.17;;
11829;SDS011;5972;42.134;24.718;2024-02-21T03:39:26;27.70;;;22.00;;
11829;SDS011;5972;42.134;24.718;2024-02-21T03:41:53;26.27;;;22.03;;
11829;SDS011;5972;42.134;24.718;2024-02-21T03:44:20;28.23;;;21.67;;
11829;SDS011;5972;42.134;24.718;2024-02-21T03:46:47;26.25;;;21.58;;
11829;SDS011;5972;42.134;24.718;2024-02-21T03:49:14;25.27;;;20.87;;
11829;SDS011;5972;42.134;24.718;2024-02-21T03:51:42;24.67;;;20.50;;
11829;SDS011;5972;42.134;24.718;2024-02-21T03:54:12;26.03;;;20.37;;
11829;SDS011;5972;42.134;24.718;2024-02-21T03:56:39;22.83;;;19.23;;
11829;SDS011;5972;42.134;24.718;2024-02-21T03:59:06;26.30;;;20.98;;
11829;SDS011;5972;42.134;24.718;2024-02-21T04:01:34;24.27;;;20.60;;
11829;SDS011;5972;42.134;24.718;2024-02-21T04:04:01;26.10;;;19.75;;
11829;SDS011;5972;42.134;24.718;2024-02-21T04:06:28;26.73;;;21.07;;
11829;SDS011;5972;42.134;24.718;2024-02-21T04:08:56;23.33;;;19.70;;
11829;SDS011;5972;42.134;24.718;2024-02-21T04:11:24;23.40;;;19.10;;
11829;SDS011;5972;42.134;24.718;2024-02-21T04:13:51;26.13;;;20.33;;
11829;SDS011;5972;42.134;24.718;2024-02-21T04:16:17;21.40;;;18.30;;
11829;SDS011;5972;42.134;24.718;2024-02-21T04:18:44;24.53;;;18.40;;
11829;SDS011;5972;42.134;24.718;2024-02-21T04:21:14;23.23;;;18.40;;
11829;SDS011;5972;42.134;24.718;2024-02-21T04:23:42;21.77;;;17.67;;
11829;SDS011;5972;42.134;24.718;2024-02-21T04:26:12;23.33;;;18.70;;
11829;SDS011;5972;42.134;24.718;2024-02-21T04:28:39;23.53;;;18.93;;
11829;SDS011;5972;42.134;24.718;2024-02-21T04:31:06;22.83;;;17.97;;
11829;SDS011;5972;42.134;24.718;2024-02-21T04:33:33;20.03;;;16.80;;
11829;SDS011;5972;42.134;24.718;2024-02-21T04:36:00;19.87;;;16.70;;
11829;SDS011;5972;42.134;24.718;2024-02-21T04:38:27;19.50;;;16.07;;
11829;SDS011;5972;42.134;24.718;2024-02-21T04:40:54;20.47;;;17.40;;
11829;SDS011;5972;42.134;24.718;2024-02-21T04:43:25;19.17;;;16.63;;
11829;SDS011;5972;42.134;24.718;2024-02-21T04:45:52;19.53;;;16.53;;
11829;SDS011;5972;42.134;24.718;2024-02-21T04:48:19;21.40;;;17.77;;
11829;SDS011;5972;42.134;24.718;2024-02-21T04:50:49;22.83;;;18.50;;
11829;SDS011;5972;42.134;24.718;2024-02-21T04:53:16;21.50;;;17.87;;
11829;SDS011;5972;42.134;24.718;2024-02-21T04:55:45;21.10;;;16.40;;
11829;SDS011;5972;42.134;24.718;2024-02-21T04:58:30;19.93;;;17.60;;
11829;SDS011;5972;42.134;24.718;2024-02-21T05:00:57;18.53;;;16.47;;
11829;SDS011;5972;42.134;24.718;2024-02-21T05:03:24;21.13;;;16.60;;
11829;SDS011;5972;42.134;24.718;2024-02-21T05:05:51;18.10;;;15.13;;
11829;SDS011;5972;42.134;24.718;2024-02-21T05:08:18;23.93;;;18.77;;
11829;SDS011;5972;42.134;24.718;2024-02-21T05:10:45;28.77;;;24.03;;
11829;SDS011;5972;42.134;24.718;2024-02-21T05:13:12;31.77;;;24.30;;
11829;SDS011;5972;42.134;24.718;2024-02-21T05:15:40;37.73;;;28.77;;
11829;SDS011;5972;42.134;24.718;2024-02-21T05:18:07;40.90;;;30.40;;
11829;SDS011;5972;42.134;24.718;2024-02-21T05:20:34;42.80;;;30.80;;
11829;SDS011;5972;42.134;24.718;2024-02-21T05:23:01;41.40;;;30.43;;
11829;SDS011;5972;42.134;24.718;2024-02-21T05:25:28;49.13;;;32.53;;
11829;SDS011;5972;42.134;24.718;2024-02-21T05:27:55;43.30;;;33.00;;
11829;SDS011;5972;42.134;24.718;2024-02-21T05:30:26;50.67;;;33.60;;
11829;SDS011;5972;42.134;24.718;2024-02-21T05:32:55;44.87;;;33.20;;
11829;SDS011;5972;42.134;24.718;2024-02-21T05:35:24;46.93;;;34.60;;
11829;SDS011;5972;42.134;24.718;2024-02-21T05:37:52;47.87;;;34.77;;
11829;SDS011;5972;42.134;24.718;2024-02-21T05:40:19;47.67;;;33.10;;
11829;SDS011;5972;42.134;24.718;2024-02-21T05:42:46;45.63;;;32.70;;
11829;SDS011;5972;42.134;24.718;2024-02-21T05:45:13;47.27;;;32.37;;
11829;SDS011;5972;42.134;24.718;2024-02-21T05:47:41;41.50;;;32.33;;
11829;SDS011;5972;42.134;24.718;2024-02-21T05:50:09;45.70;;;32.60;;
11829;SDS011;5972;42.134;24.718;2024-02-21T05:52:37;46.90;;;32.73;;
11829;SDS011;5972;42.134;24.718;2024-02-21T05:55:06;47.10;;;32.97;;
11829;SDS011;5972;42.134;24.718;2024-02-21T05:57:34;49.10;;;33.77;;
11829;SDS011;5972;42.134;24.718;2024-02-21T06:00:02;50.33;;;33.57;;
11829;SDS011;5972;42.134;24.718;2024-02-21T06:02:31;46.03;;;34.10;;
11829;SDS011;5972;42.134;24.718;2024-02-21T06:04:58;43.93;;;32.97;;
11829;SDS011;5972;42.134;24.718;2024-02-21T06:07:26;47.03;;;33.40;;
11829;SDS011;5972;42.134;24.718;2024-02-21T06:09:53;47.37;;;32.53;;
11829;SDS011;5972;42.134;24.718;2024-02-21T06:12:20;53.47;;;37.47;;
11829;SDS011;5972;42.134;24.718;2024-02-21T06:14:47;45.87;;;33.57;;
11829;SDS011;5972;42.134;24.718;2024-02-21T06:17:14;51.97;;;35.83;;
11829;SDS011;5972;42.134;24.718;2024-02-21T06:19:42;63.83;;;41.00;;
11829;SDS011;5972;42.134;24.718;2024-02-21T06:22:09;51.73;;;36.40;;
11829;SDS011;5972;42.134;24.718;2024-02-21T06:24:38;51.30;;;35.67;;
11829;SDS011;5972;42.134;24.718;2024-02-21T06:27:05;48.20;;;37.37;;
11829;SDS011;5972;42.134;24.718;2024-02-21T06:29:33;52.47;;;39.43;;
11829;SDS011;5972;42.134;24.718;2024-02-21T06:32:00;44.33;;;33.50;;
11829;SDS011;5972;42.134;24.718;2024-02-21T06:34:27;39.23;;;31.00;;
11829;SDS011;5972;42.134;24.718;2024-02-21T06:36:54;42.27;;;31.97;;
11829;SDS011;5972;42.134;24.718;2024-02-21T06:39:21;40.10;;;29.02;;
11829;SDS011;5972;42.134;24.718;2024-02-21T06:41:50;45.05;;;29.40;;
11829;SDS011;5972;42.134;24.718;2024-02-21T06:44:18;38.67;;;28.13;;
11829;SDS011;5972;42.134;24.718;2024-02-21T06:46:45;35.23;;;28.00;;
11829;SDS011;5972;42.134;24.718;2024-02-21T06:49:12;38.15;;;28.13;;
11829;SDS011;5972;42.134;24.718;2024-02-21T06:51:41;36.97;;;27.83;;
11829;SDS011;5972;42.134;24.718;2024-02-21T06:54:08;36.63;;;28.60;;
11829;SDS011;5972;42.134;24.718;2024-02-21T06:56:36;36.53;;;26.30;;
11829;SDS011;5972;42.134;24.718;2024-02-21T06:59:05;34.80;;;26.45;;
11829;SDS011;5972;42.134;24.718;2024-02-21T07:01:34;31.42;;;24.17;;
11829;SDS011;5972;42.134;24.718;2024-02-21T07:04:01;28.75;;;22.80;;
11829;SDS011;5972;42.134;24.718;2024-02-21T07:06:28;24.55;;;19.52;;
11829;SDS011;5972;42.134;24.718;2024-02-21T07:08:56;25.10;;;19.02;;
11829;SDS011;5972;42.134;24.718;2024-02-21T07:11:23;27.13;;;18.45;;
11829;SDS011;5972;42.134;24.718;2024-02-21T07:13:50;24.55;;;19.33;;
11829;SDS011;5972;42.134;24.718;2024-02-21T07:16:20;29.20;;;19.50;;
11829;SDS011;5972;42.134;24.718;2024-02-21T07:18:47;28.25;;;18.63;;
11829;SDS011;5972;42.134;24.718;2024-02-21T07:21:14;23.55;;;17.05;;
11829;SDS011;5972;42.134;24.718;2024-02-21T07:23:43;23.58;;;17.73;;
11829;SDS011;5972;42.134;24.718;2024-02-21T07:26:10;22.13;;;16.67;;
11829;SDS011;5972;42.134;24.718;2024-02-21T07:28:37;23.05;;;17.52;;
11829;SDS011;5972;42.134;24.718;2024-02-21T07:31:04;29.63;;;17.17;;
11829;SDS011;5972;42.134;24.718;2024-02-21T07:33:35;22.90;;;15.73;;
11829;SDS011;5972;42.134;24.718;2024-02-21T07:36:05;22.10;;;16.20;;
11829;SDS011;5972;42.134;24.718;2024-02-21T07:38:32;26.38;;;16.77;;
11829;SDS011;5972;42.134;24.718;2024-02-21T07:40:59;23.75;;;15.35;;
11829;SDS011;5972;42.134;24.718;2024-02-21T07:43:29;22.42;;;16.00;;
11829;SDS011;5972;42.134;24.718;2024-02-21T07:45:56;23.23;;;16.60;;
11829;SDS011;5972;42.134;24.718;2024-02-21T07:48:23;21.05;;;16.38;;
11829;SDS011;5972;42.134;24.718;2024-02-21T07:50:53;20.45;;;15.45;;
11829;SDS011;5972;42.134;24.718;2024-02-21T07:53:20;18.75;;;15.70;;
11829;SDS011;5972;42.134;24.718;2024-02-21T07:55:47;20.90;;;16.35;;
11829;SDS011;5972;42.134;24.718;2024-02-21T07:58:15;19.77;;;16.20;;
11829;SDS011;5972;42.134;24.718;2024-02-21T08:00:43;23.77;;;16.77;;
11829;SDS011;5972;42.134;24.718;2024-02-21T08:03:10;19.60;;;15.90;;
11829;SDS011;5972;42.134;24.718;2024-02-21T08:05:40;25.48;;;16.77;;
11829;SDS011;5972;42.134;24.718;2024-02-21T08:08:13;23.40;;;16.65;;
11829;SDS011;5972;42.134;24.718;2024-02-21T08:10:43;20.38;;;14.10;;
11829;SDS011;5972;42.134;24.718;2024-02-21T08:13:10;16.40;;;9.52;;
11829;SDS011;5972;42.134;24.718;2024-02-21T08:15:37;12.30;;;9.95;;
11829;SDS011;5972;42.134;24.718;2024-02-21T08:18:09;12.48;;;9.18;;
11829;SDS011;5972;42.134;24.718;2024-02-21T08:20:36;9.65;;;8.60;;
11829;SDS011;5972;42.134;24.718;2024-02-21T08:23:03;10.55;;;8.73;;
11829;SDS011;5972;42.134;24.718;2024-02-21T08:25:31;10.68;;;8.70;;
11829;SDS011;5972;42.134;24.718;2024-02-21T08:28:01;13.00;;;8.30;;
11829;SDS011;5972;42.134;24.718;2024-02-21T08:30:29;14.68;;;8.55;;
11829;SDS011;5972;42.134;24.718;2024-02-21T08:32:56;10.43;;;8.73;;
11829;SDS011;5972;42.134;24.718;2024-02-21T08:35:23;10.60;;;8.02;;
11829;SDS011;5972;42.134;24.718;2024-02-21T08:37:50;11.18;;;8.43;;
11829;SDS011;5972;42.134;24.718;2024-02-21T08:40:35;11.07;;;8.88;;
11829;SDS011;5972;42.134;24.718;2024-02-21T08:43:03;13.60;;;8.77;;
11829;SDS011;5972;42.134;24.718;2024-02-21T08:45:30;11.48;;;8.55;;
11829;SDS011;5972;42.134;24.718;2024-02-21T08:47:57;11.82;;;6.82;;
11829;SDS011;5972;42.134;24.718;2024-02-21T08:50:24;9.27;;;7.00;;
11829;SDS011;5972;42.134;24.718;2024-02-21T08:52:51;13.55;;;9.25;;
11829;SDS011;5972;42.134;24.718;2024-02-21T08:55:18;12.25;;;9.15;;
11829;SDS011;5972;42.134;24.718;2024-02-21T08:57:47;11.02;;;9.20;;
11829;SDS011;5972;42.134;24.718;2024-02-21T09:00:14;10.98;;;9.43;;
11829;SDS011;5972;42.134;24.718;2024-02-21T09:02:42;12.18;;;10.07;;
11829;SDS011;5972;42.134;24.718;2024-02-21T09:05:09;11.38;;;9.23;;
11829;SDS011;5972;42.134;24.718;2024-02-21T09:07:36;10.38;;;8.93;;
11829;SDS011;5972;42.134;24.718;2024-02-21T09:10:03;9.98;;;8.70;;
11829;SDS011;5972;42.134;24.718;2024-02-21T09:12:31;9.13;;;8.23;;
11829;SDS011;5972;42.134;24.718;2024-02-21T09:15:00;12.48;;;8.52;;
11829;SDS011;5972;42.134;24.718;2024-02-21T09:17:27;13.38;;;9.23;;
11829;SDS011;5972;42.134;24.718;2024-02-21T09:19:54;11.57;;;10.45;;
11829;SDS011;5972;42.134;24.718;2024-02-21T09:22:24;14.65;;;11.48;;
11829;SDS011;5972;42.134;24.718;2024-02-21T09:24:51;14.02;;;11.98;;
11829;SDS011;5972;42.134;24.718;2024-02-21T09:27:18;8.40;;;7.63;;
11829;SDS011;5972;42.134;24.718;2024-02-21T09:29:45;8.25;;;6.20;;
11829;SDS011;5972;42.134;24.718;2024-02-21T09:32:19;9.98;;;5.97;;
11829;SDS011;5972;42.134;24.718;2024-02-21T09:34:46;7.05;;;6.45;;
11829;SDS011;5972;42.134;24.718;2024-02-21T09:37:13;6.70;;;6.10;;
11829;SDS011;5972;42.134;24.718;2024-02-21T09:39:40;6.65;;;5.93;;
11829;SDS011;5972;42.134;24.718;2024-02-21T09:42:07;9.00;;;6.65;;
11829;SDS011;5972;42.134;24.718;2024-02-21T09:44:38;13.23;;;7.25;;
11829;SDS011;5972;42.134;24.718;2024-02-21T09:47:06;7.32;;;6.63;;
11829;SDS011;5972;42.134;24.718;2024-02-21T09:49:38;7.43;;;6.32;;
11829;SDS011;5972;42.134;24.718;2024-02-21T09:52:07;9.82;;;5.90;;
11829;SDS011;5972;42.134;24.718;2024-02-21T09:54:35;7.75;;;6.22;;
11829;SDS011;5972;42.134;24.718;2024-02-21T09:57:02;6.68;;;6.07;;
11829;SDS011;5972;42.134;24.718;2024-02-21T09:59:31;6.45;;;5.95;;
11829;SDS011;5972;42.134;24.718;2024-02-21T10:01:58;6.97;;;6.28;;
11829;SDS011;5972;42.134;24.718;2024-02-21T10:04:30;7.15;;;5.70;;
11829;SDS011;5972;42.134;24.718;2024-02-21T10:07:00;6.43;;;5.93;;
11829;SDS011;5972;42.134;24.718;2024-02-21T10:09:27;6.30;;;5.70;;
11829;SDS011;5972;42.134;24.718;2024-02-21T10:11:55;6.72;;;6.07;;
11829;SDS011;5972;42.134;24.718;2024-02-21T10:14:22;9.95;;;6.68;;
11829;SDS011;5972;42.134;24.718;2024-02-21T10:16:56;11.70;;;6.22;;
11829;SDS011;5972;42.134;24.718;2024-02-21T10:19:24;8.15;;;6.22;;
11829;SDS011;5972;42.134;24.718;2024-02-21T10:22:00;5.45;;;4.95;;
11829;SDS011;5972;42.134;24.718;2024-02-21T10:24:29;6.20;;;5.07;;
11829;SDS011;5972;42.134;24.718;2024-02-21T10:26:59;7.43;;;6.50;;
11829;SDS011;5972;42.134;24.718;2024-02-21T10:29:28;6.20;;;5.50;;
11829;SDS011;5972;42.134;24.718;2024-02-21T10:32:06;5.55;;;5.15;;
11829;SDS011;5972;42.134;24.718;2024-02-21T10:34:33;5.70;;;5.20;;
11829;SDS011;5972;42.134;24.718;2024-02-21T10:37:03;8.80;;;5.43;;
11829;SDS011;5972;42.134;24.718;2024-02-21T10:39:31;5.97;;;5.38;;
11829;SDS011;5972;42.134;24.718;2024-02-21T10:41:59;5.65;;;5.15;;
11829;SDS011;5972;42.134;24.718;2024-02-21T10:44:29;5.95;;;5.43;;
11829;SDS011;5972;42.134;24.718;2024-02-21T10:46:57;5.88;;;5.28;;
11829;SDS011;5972;42.134;24.718;2024-02-21T10:49:24;6.03;;;5.43;;
11829;SDS011;5972;42.134;24.718;2024-02-21T10:51:58;5.75;;;5.25;;
11829;SDS011;5972;42.134;24.718;2024-02-21T10:54:39;5.93;;;5.32;;
11829;SDS011;5972;42.134;24.718;2024-02-21T10:57:11;7.00;;;6.15;;
11829;SDS011;5972;42.134;24.718;2024-02-21T10:59:39;7.03;;;6.20;;
11829;SDS011;5972;42.134;24.718;2024-02-21T11:02:07;7.15;;;6.00;;
11829;SDS011;5972;42.134;24.718;2024-02-21T11:04:34;6.18;;;5.68;;
11829;SDS011;5972;42.134;24.718;2024-02-21T11:07:04;8.23;;;5.50;;
11829;SDS011;5972;42.134;24.718;2024-02-21T11:09:32;6.93;;;5.10;;
11829;SDS011;5972;42.134;24.718;2024-02-21T11:12:01;6.00;;;5.10;;
11829;SDS011;5972;42.134;24.718;2024-02-21T11:14:29;5.38;;;4.88;;
11829;SDS011;5972;42.134;24.718;2024-02-21T11:16:58;6.82;;;4.57;;
11829;SDS011;5972;42.134;24.718;2024-02-21T11:19:26;4.50;;;4.18;;
11829;SDS011;5972;42.134;24.718;2024-02-21T11:21:56;5.40;;;5.00;;
11829;SDS011;5972;42.134;24.718;2024-02-21T11:24:28;6.00;;;5.40;;
11829;SDS011;5972;42.134;24.718;2024-02-21T11:27:09;5.13;;;4.72;;
11829;SDS011;5972;42.134;24.718;2024-02-21T11:29:42;5.97;;;5.47;;
11829;SDS011;5972;42.134;24.718;2024-02-21T11:32:10;7.18;;;4.88;;
11829;SDS011;5972;42.134;24.718;2024-02-21T11:34:37;6.20;;;4.68;;
11829;SDS011;5972;42.134;24.718;2024-02-21T11:37:12;4.95;;;4.55;;
11829;SDS011;5972;42.134;24.718;2024-02-21T11:39:42;5.07;;;4.57;;
11829;SDS011;5972;42.134;24.718;2024-02-21T11:42:10;6.13;;;4.40;;
11829;SDS011;5972;42.134;24.718;2024-02-21T11:44:37;4.80;;;4.28;;
11829;SDS011;5972;42.134;24.718;2024-02-21T11:47:05;4.72;;;4.40;;
11829;SDS011;5972;42.134;24.718;2024-02-21T11:49:35;8.07;;;4.43;;
11829;SDS011;5972;42.134;24.718;2024-02-21T11:52:03;5.63;;;3.90;;
11829;SDS011;5972;42.134;24.718;2024-02-21T11:54:35;5.47;;;4.13;;
11829;SDS011;5972;42.134;24.718;2024-02-21T11:57:03;4.53;;;4.13;;
11829;SDS011;5972;42.134;24.718;2024-02-21T11:59:31;5.30;;;3.83;;
11829;SDS011;5972;42.134;24.718;2024-02-21T12:01:58;4.20;;;3.80;;
11829;SDS011;5972;42.134;24.718;2024-02-21T12:04:28;5.63;;;3.42;;
11829;SDS011;5972;42.134;24.718;2024-02-21T12:06:56;3.47;;;3.17;;
11829;SDS011;5972;42.134;24.718;2024-02-21T12:09:24;3.90;;;3.60;;
11829;SDS011;5972;42.134;24.718;2024-02-21T12:11:58;4.20;;;3.90;;
11829;SDS011;5972;42.134;24.718;2024-02-21T12:14:28;4.53;;;3.67;;
11829;SDS011;5972;42.134;24.718;2024-02-21T12:16:56;4.30;;;3.90;;
11829;SDS011;5972;42.134;24.718;2024-02-21T12:19:23;4.03;;;3.40;;
11829;SDS011;5972;42.134;24.718;2024-02-21T12:21:50;5.68;;;3.72;;
11829;SDS011;5972;42.134;24.718;2024-02-21T12:24:21;3.78;;;3.47;;
11829;SDS011;5972;42.134;24.718;2024-02-21T12:26:49;4.07;;;3.78;;
11829;SDS011;5972;42.134;24.718;2024-02-21T12:29:17;5.13;;;4.07;;
11829;SDS011;5972;42.134;24.718;2024-02-21T12:31:49;7.38;;;3.67;;
11829;SDS011;5972;42.134;24.718;2024-02-21T12:34:16;3.55;;;3.28;;
11829;SDS011;5972;42.134;24.718;2024-02-21T12:36:45;4.20;;;3.80;;
11829;SDS011;5972;42.134;24.718;2024-02-21T12:39:13;4.25;;;3.83;;
11829;SDS011;5972;42.134;24.718;2024-02-21T12:41:40;4.07;;;3.78;;
11829;SDS011;5972;42.134;24.718;2024-02-21T12:44:09;5.45;;;4.00;;
11829;SDS011;5972;42.134;24.718;2024-02-21T12:46:37;3.75;;;3.13;;
11829;SDS011;5972;42.134;24.718;2024-02-21T12:49:06;3.33;;;3.10;;
11829;SDS011;5972;42.134;24.718;2024-02-21T12:51:34;4.25;;;2.90;;
11829;SDS011;5972;42.134;24.718;2024-02-21T12:54:01;3.50;;;3.25;;
11829;SDS011;5972;42.134;24.718;2024-02-21T12:56:29;3.55;;;3.25;;
11829;SDS011;5972;42.134;24.718;2024-02-21T12:58:58;3.60;;;3.30;;
11829;SDS011;5972;42.134;24.718;2024-02-21T13:01:25;4.20;;;3.85;;
11829;SDS011;5972;42.134;24.718;2024-02-21T13:03:53;3.58;;;3.28;;
11829;SDS011;5972;42.134;24.718;2024-02-21T13:06:22;3.30;;;3.00;;
11829;SDS011;5972;42.134;24.718;2024-02-21T13:08:50;3.33;;;2.90;;
11829;SDS011;5972;42.134;24.718;2024-02-21T13:11:17;3.08;;;2.60;;
11829;SDS011;5972;42.134;24.718;2024-02-21T13:13:44;2.88;;;2.67;;
11829;SDS011;5972;42.134;24.718;2024-02-21T13:16:12;3.08;;;2.88;;
11829;SDS011;5972;42.134;24.718;2024-02-21T13:18:41;6.57;;;2.80;;
11829;SDS011;5972;42.134;24.718;2024-02-21T13:21:10;4.95;;;2.33;;
11829;SDS011;5972;42.134;24.718;2024-02-21T13:23:39;3.00;;;2.53;;
11829;SDS011;5972;42.134;24.718;2024-02-21T13:26:06;3.65;;;2.20;;
11829;SDS011;5972;42.134;24.718;2024-02-21T13:28:33;3.25;;;2.78;;
11829;SDS011;5972;42.134;24.718;2024-02-21T13:31:00;2.72;;;2.53;;
11829;SDS011;5972;42.134;24.718;2024-02-21T13:33:28;2.88;;;2.50;;
11829;SDS011;5972;42.134;24.718;2024-02-21T13:35:55;3.00;;;2.67;;
11829;SDS011;5972;42.134;24.718;2024-02-21T13:38:22;2.92;;;2.72;;
11829;SDS011;5972;42.134;24.718;2024-02-21T13:40:50;2.92;;;2.72;;
11829;SDS011;5972;42.134;24.718;2024-02-21T13:43:19;3.17;;;2.88;;
11829;SDS011;5972;42.134;24.718;2024-02-21T13:45:55;2.83;;;2.63;;
11829;SDS011;5972;42.134;24.718;2024-02-21T13:48:24;3.22;;;2.78;;
11829;SDS011;5972;42.134;24.718;2024-02-21T13:50:52;6.03;;;3.03;;
11829;SDS011;5972;42.134;24.718;2024-02-21T13:53:19;2.80;;;2.60;;
11829;SDS011;5972;42.134;24.718;2024-02-21T13:55:46;4.32;;;2.72;;
11829;SDS011;5972;42.134;24.718;2024-02-21T13:58:16;3.17;;;2.47;;
11829;SDS011;5972;42.134;24.718;2024-02-21T14:00:43;2.50;;;2.30;;
11829;SDS011;5972;42.134;24.718;2024-02-21T14:03:11;2.38;;;2.17;;
11829;SDS011;5972;42.134;24.718;2024-02-21T14:05:37;2.35;;;2.20;;
11829;SDS011;5972;42.134;24.718;2024-02-21T14:08:06;3.90;;;2.47;;
11829;SDS011;5972;42.134;24.718;2024-02-21T14:10:33;3.10;;;2.33;;
11829;SDS011;5972;42.134;24.718;2024-02-21T14:13:00;3.65;;;2.80;;
11829;SDS011;5972;42.134;24.718;2024-02-21T14:15:28;2.90;;;2.70;;
11829;SDS011;5972;42.134;24.718;2024-02-21T14:17:55;3.17;;;2.63;;
11829;SDS011;5972;42.134;24.718;2024-02-21T14:20:22;3.53;;;3.22;;
11829;SDS011;5972;42.134;24.718;2024-02-21T14:22:49;5.40;;;4.53;;
11829;SDS011;5972;42.134;24.718;2024-02-21T14:25:16;7.88;;;5.63;;
11829;SDS011;5972;42.134;24.718;2024-02-21T14:27:43;5.10;;;4.25;;
11829;SDS011;5972;42.134;24.718;2024-02-21T14:30:12;5.63;;;4.53;;
11829;SDS011;5972;42.134;24.718;2024-02-21T14:32:43;6.47;;;5.30;;
11829;SDS011;5972;42.134;24.718;2024-02-21T14:35:10;10.10;;;5.53;;